Timeline UpdatesTrip UpdatesNews PostsPvt PostsTravel TipsAdmin PostsConv PostsFollowed PostsChat RequestsBlog PostsPNR Posts

Disclaimer
Search
 
 
Tue Sep 2, 2014 12:15:37 ISTHomeTrainsΣChainsAtlasPNRForumGalleryNewsFAQTripsMembersLoginFeedback
No Recent News for this Train
Other Trains in the News **new
Latest...
..
Tue Jul 01, 2014 (01:24PM)
⇐ Return Journey: Train# 53041

53042/Jaynagar - Howrah Passenger (UnReserved)

OLD Time-Table. Click here to UPDATE TT
Sep 17 2013 (6:15PM)
Change Departure Station:
Change Arrival Station:
Post a Train Travel TipPost a Train Travel Tip **new
Post a Comment/Question/Picture/VideoPost a Comment/Question/Picture/Video
Pantry/Catering
✕ NO Pantry Car
✕ NO Catering
RSA - Rake Sharing
Rake/Coach Composition
Loco-SLR-GS-GS-GS-GS-GS-GS-GS-SLR
Loco
HWH/BWN WDM 2/3A
News    PNR    Forum    Time-Table    Availability    Fare Chart    Map    Arr/Dep History    Trips    Gallery    ΣChains    X/O    Timeline    
Travel Time: 0h 16m    1 halts    Distance: 12 km    Avg Speed: 45 km/hr
Type: Passenger
Zone: ER/Eastern
Departs @ 15:41
Platform# ???
SMTWTFS
Rampurhat/RPH 
Arrives @ 15:57
Platform# ???
SMTWTFS
Mallarpur/MLV 

1 halts. 1 intermediate Stations between Rampurhat and Mallarpur

Show ALL intermediate Stations  

#CodeStation NameX/OArrivesAvgDepartsAvgHaltPFDay#KmSpeedElevZoneAddress
1JYGJaynagar (3)  -18:45---1-499.14168mECRDistt: Madhubani, Bihar
2KRHAKorahiaX  18:55-18:56-1m--1-492.44570mECRKorahia, Bihar
3KJIKhajauli  19:03-19:04-1m--1-487.13970mECRMadhubani, Bihar
4LLPRLalit Lakshmipur  19:12-19:13-1m--1-481.94066mECRDokahar Rd, Bihar
5RJARajanagar  19:19-19:20-1m--1-477.82765mECRRajnagar Distt: Madhubani, Bihar
6MBIMadhubani (3)X  19:42-19:43-1m--1-467.94562mECRMadhubani, Bihar
7PDWPandaul  19:55-19:56-1m--1-458.93059mECRMadhubani, Bihar
8UGNAUgna Halt  20:03-20:04-1m--1-455.43357mECRUgna Halt, Bihar
9SKISakri Junction (5)  20:12-20:17-5m--1-451.14455mECRMadhubani, Bihar
10SSNSShaheed Suraj Narayan Singh Halt  20:21-20:22-1m--1-448.12252mECRDarbhanga, Bihar
11TRSTarsaraiX  20:32-20:33-1m--1-444.43854mECRDarbhanga, Bihar
12BJIHBijuli Halt  20:39-20:40-1m--1-440.61253mECRBijuli Halt, Bihar
13KKHTKakarghattiO  20:54-20:55-1m--1-437.8854mECRDarbhanga, Bihar
14DBGDarbhanga Junction (5)  21:45-21:55-10m--1-431.53854mECRDarbhanga, Bihar
15LSILaheria Sarai (1)X  22:03-22:08-5m11-426.54452mECRDarbhanga, Bihar
16TLWAThalwaraX  22:14-22:15-1m--1-422.03356mECRDarbhanga, Bihar
17HYTHaiaghatX  22:26-22:27-1m--1-416.03051mECRDarbhanga, Bihar
18RBZRambhaddarpur  22:37-22:38-1m--1-411.05051mECRSamastipur, Bihar
19KSPKishanpur  22:46-22:47-1m--1-404.34751mECRSamastipur, Bihar
20MKPRMuktapur (1)  22:55-22:56-1m11-398.11053mECRSamastipur, Bihar
21SPJSamastipur Junction (9)  23:20-23:30-10m--1-394.03655mECRSamastipur, Bihar
22UJPUjiarpur (2)  23:45-23:46-1m--1-385.03151mECRSamastipur, Bihar
23NAZJNazirGanj (2)  23:58-23:59-1m--1-378.73651mECRNazirGanj, Bihar
24DSSDalsingh Sarai (2)  00:12-00:13-1m22-370.815 ECR06278-221238, Bihar
25STJTSathajagat (2)  00:31-00:32-1m--2-366.32849mECRSathajagat, Bihar
26BCABachwara Junction (3)  00:46-00:47-1m--2-359.83149mECRBegusarai, Bihar
27TGATeghra (3)O  01:04-01:05-1m--2-350.91948mECRBegusarai, Bihar
28BUJBarauni Flag (2)X  01:20-01:21-1m--2-346.3549mECRDistt: Begusarai, Bihar
29BJUBarauni Junction (9)XO  01:55-02:05-10m42-343.63049mECRBegusarai, Bihar
30SAEDinkar Gram Simaria (3)  02:17-02:18-1m--2-337.510228mECRBegusarai, Bihar
31RJORajendra Pul (1)  02:36-02:37-1m12-334.63249mECRSimaria, Bihar
32HTZHathidah Junction (2)X  02:43-02:44-1m--2-331.42350mECRMusahari, Bihar
33BRYABarhiya (3)  03:08-03:09-1m--2-322.12247mECRBarahiya, Bihar
34GGSYGanga Sahay  03:16-03:17-1m--2-319.42544mECRKIUL, Bihar
35DMRXDumri Halt (1)X  03:21-03:22-1m12-317.82849mECRNational Highway 80, Bihar
36DJSDhurani Jwas Halt  03:29-03:30-1m--2-314.52046mECRLakhisarai, Bihar
37MKBMankathaX  03:36-03:37-1m--2-312.64247mECRNational Highway 80, Bihar
38LKRLuckeesarai Junction (2)XO  03:45-03:46-1m--2-307.0252mECRLakhisarai, Bihar
39KIULKiul Junction (5)  04:28-04:35-7m--2-305.64053mECRDist. Lakhisarai, Bihar
40DNREDhanauri  04:44-04:45-1m--2-299.64248mERNational Highway 80, Bihar
41URENUren  04:52-04:53-1m--2-294.75845mERUren, Bihar
42KJHKajra (2)  04:58-04:59-1m--2-289.95550mERLakhisarai District, Bihar
43AHAAbhaipur (2)  05:07-05:08-1m--2-282.64052mERAbhaipur, Bihar
44MSDNMasudan (2)  05:14-05:15-1m--2-278.65145mERMasudan, Bihar
45DRHDharhara (2)  05:22-05:23-1m--2-272.65455mERDharhara, Bihar
46DRTPDasharathpur (2)X  05:29-05:30-1m--2-267.24348mERDharhara, Bihar
47JMPJamalpur Junction (4)X  05:39-05:49-10m--2-260.84759mERJamalpur 06344-243101, Bihar
48RPURRatanpur (2)  05:57-05:58-1m--2-254.54946mERRatanpur Railway Station, Bihar
49BUPBariarpur (3)  06:04-06:05-1m--2-249.61042mERMunger, Bihar
50KPRDKalyanpur Road (3)X  06:13-06:14-1m--2-248.4940mERMunger, Bihar
51GNNAGangani (2)  06:22-06:23-1m--2-247.211638mERGangania, Bihar
52SGGSultanGanj (3)  06:31-06:32-1m--2-231.74442mERSultanganj, Bihar
53MVVMaheshi (2)  06:41-06:42-1m--2-225.14137mERTilakpur, Bihar
54AKNAkbarnagar (3)  06:47-06:48-1m--2-221.64439mERTilakpur, Bihar
55CTMPChhit Makhanpur (2)  06:53-06:54-1m--2-218.03138mERBhaunathpur, Bihar
56MPYMurarpur (2)X  06:57-06:58-1m--2-216.45938mERMau, Bihar
57NATNathnagar (2)  07:03-07:04-1m--2-211.52648mERBhagalpur, Bihar
58BGPBhagalpur Junction (6)X  07:15-07:30-15m--2-206.84549mERBhagalpur, Bihar
59SBOSabaur (3)X  07:40-07:41-1m--2-199.22242mERSabour, Bihar
60LMMLailakh Mamalkha (2)  07:59-08:00-1m--2-192.65836mERLailakh Mamlkha, Bihar
61GGAGhoga (2)  08:06-08:07-1m--2-186.86942mERGhoga, Bihar
62EKCEkchari (1)  08:12-08:13-1m12-181.14437mERNational Highway 80, Bihar
63CLGKahalgaon (2)  08:19-08:20-1m12-176.74444mERBhagalpur, Bihar
64BKSLBikram Shila (2)X  08:31-08:32-1m--2-168.71458mERBikram Shila, Bihar
65SVRPShivanarayanpur (2)X  08:47-08:48-1m--2-165.22147mERShivanarayanpur, Bihar
66PPTPirpainti (2)X  09:14-09:15-1m--2-156.34353mERBhagalpur, Bihar
67AMPLAmmapali (2)  09:21-09:22-1m--2-152.16340mERAmmapali, Bihar
68MZCMirza Cheuki (3)  09:26-09:27-1m32-147.91138mERBihar, Bihar
69KRMAKaramtola (2)X  10:00-10:01-1m22-141.81935mERNational Highway 80, Bihar
70SBGSahibganj Junction (3)  10:30-10:40-10m12-132.85838mERSahibganj, Jharkhand
71SLJSakrigali Junction (3)X  10:48-10:49-1m--2-125.05345mERSakrigali, Jharkhand
72MJPMaharajpur (2)X  10:56-10:57-1m--2-118.93334mERMoharajpur, Jharkhand
73KPTOKaranpur Ato  11:10-11:11-1m--2-111.76039mERKaranpur, Jharkhand
74TLJTaljhari  11:18-11:19-1m--2-104.73638mERTaljhari, Jharkhand
75KXEKalian Chak  11:27-11:28-1m--2-99.94845mERKalian Chak, Jharkhand
76TPHTinpahar Junction (3)  11:34-11:35-1m22-95.03645mERBamangawan, Jharkhand
77DDXDhamdhamia (2)  11:46-11:47-1m--2-88.42546mERDhamdhamia, Jharkhand
78BKLEBakudi (3)  11:52-11:53-1m--2-86.31465mERBakudi, Jharkhand
79BHWBarharwa Junction (3)  12:27-12:37-10m22-78.44936mERBarharwa, Jharkhand
80GMANGumani (3)  12:46-12:47-1m--2-71.05731mERGumani, Jharkhand
81KLPKotalpukur (3)X  12:54-12:55-1m--2-64.35640mERKotalpukur, Jharkhand
82TBBTilbhita (3)  13:03-13:04-1m--2-56.84231mERTilbhita, Jharkhand
83PKRPakur (2)X  13:10-13:11-1m22-52.53637mERDist:- Pakur, Jharkhand
84NGFNagarnabi (3)  13:20-13:21-1m12-47.13430mERState Highway 5, Jharkhand
85RJGRajgram (3)  13:30-13:31-1m22-42.05832mERDist - Birbhum, West Bengal
86BSBRBanshlai Bridge (2)  13:38-13:39-1m--2-35.35035mERDist - Birbhum, West Bengal
87MRRMurarai (3)  13:45-13:46-1m--2-30.35736mERDist - Birbhum, West Bengal
88CTRChatra (3)X  13:54-13:55-1m--2-22.75742mERDist - Birbhum, West Bengal
89NHTNalhati Junction (4)  14:04-14:06-2m22-14.15548mERDist - Birbhum, West Bengal
90SDLESwadinpur (3)XO  14:14-14:15-1m--2-6.7644mERDIST-BIRBHUM, West Bengal
91RPH»Rampurhat (3)»X  15:26-15:41-15m--20.06241mERDIST - Birbhum, West Bengal
92TPFTarapith Road (2)  15:48-15:49-1m--27.23945mERDist - Birbhum, West Bengal
93MLV•Mallarpur (3)•  15:57-15:58-1m--212.47146mERDist - Birbhum, West Bengal
94GHLEGadadharpur (3)XO  16:05-16:06-1m2220.71352mERDist - Birbhum, West Bengal
95SNTSainthia Junction (4)  16:40-16:41-1m4228.07758mERDist - Birbhum, West Bengal
96BSLEBataspur (2)X  16:47-16:48-1m--235.72154mERDist - Birbhum, West Bengal
97AMPAhmadpur Junction (3)O  17:04-17:05-1m--241.21746mERDist - Birbhum, West Bengal
98KPLEKopai (2)X  17:34-17:35-1m--249.46148mERDist - Birbhum, West Bengal
99PNEPrantik (3)  17:42-17:43-1m--256.54248mERDist - Birbhum, West Bengal
100BHPBolpur Shantiniketan (3)X  17:49-17:52-3m--260.76959mERDist - Birbhum, West Bengal
101BDHBhedia (2)X  17:59-18:00-1m--268.74041mERDist - Bardhaman, West Bengal
102PCQPichkurirdhal (3)  18:07-18:08-1m--273.45338mERDist - Bardhaman, West Bengal
103GKHGuskara (2)X  18:15-18:16-1m1279.63941mERDist - Bardhaman, West Bengal
104NRXNoadar Dhal (2)  18:26-18:27-1m--286.13746mERdist - bardhaman, West Bengal
105BPSBanpas (3)  18:33-18:34-1m--289.71146mERDist - Bardhaman, West Bengal
106JTLJhapater Dhal (4)XO  18:54-18:55-1m--293.5836mERDist - Bardhaman, West Bengal
107KANKhana Junction (5)X  19:38-19:39-1m--299.46542mERDist - Bardhaman, West Bengal
108TITTalit (4)XO  19:44-19:45-1m--2104.84637mERDist - Bardhaman, West Bengal
109BWNBarddhaman Junction (8)X  19:55-20:15-20m--2112.54534mERDist - Barddhaman, West Bengal
110BDCBandel Junction (7)  21:45-21:50-5m--2179.73814mERdist - HOOGHLY, West Bengal
111CNSChuchura (3)  21:56-21:57-1m--2183.53615mERDist - HOOGHLY - 712102, West Bengal
112CGRChandan Nagar (3)X  22:02-22:03-1m--2186.54616mERDist -HOOGHLY - 712136, West Bengal
113SHESeoraphuli Junction (6)  22:17-22:18-1m--2197.13813mERBaidyabati, West Bengal
114SRPSerampore (4)X  22:22-22:23-1m--2199.63211mERdist - hooghly, West Bengal
115HWHKolkata Howrah Junction (23)  23:00--42219.2-10mERHowrah 711101, West Bengal
Scroll to Top
Scroll to Bottom